sensor_id;sensor_type;location;lat;lon;timestamp;P1;durP1;ratioP1;P2;durP2;ratioP2
56593;SDS011;42474;51.660;5.824;2024-01-30T00:00:49;19.95;;;16.69;;
56593;SDS011;42474;51.660;5.824;2024-01-30T00:04:49;19.92;;;17.05;;
56593;SDS011;42474;51.660;5.824;2024-01-30T00:08:49;18.76;;;15.94;;
56593;SDS011;42474;51.660;5.824;2024-01-30T00:12:49;20.8;;;17.44;;
56593;SDS011;42474;51.660;5.824;2024-01-30T00:16:50;21.48;;;17.58;;
56593;SDS011;42474;51.660;5.824;2024-01-30T00:20:49;18.57;;;16.5;;
56593;SDS011;42474;51.660;5.824;2024-01-30T00:24:49;20.74;;;17.52;;
56593;SDS011;42474;51.660;5.824;2024-01-30T00:28:49;19.99;;;17.68;;
56593;SDS011;42474;51.660;5.824;2024-01-30T00:32:49;18.48;;;16.35;;
56593;SDS011;42474;51.660;5.824;2024-01-30T00:36:50;21.63;;;17.4;;
56593;SDS011;42474;51.660;5.824;2024-01-30T00:40:49;22.65;;;17.22;;
56593;SDS011;42474;51.660;5.824;2024-01-30T00:44:50;22.43;;;18.03;;
56593;SDS011;42474;51.660;5.824;2024-01-30T00:48:49;24.6;;;19.86;;
56593;SDS011;42474;51.660;5.824;2024-01-30T00:52:49;26.71;;;20.76;;
56593;SDS011;42474;51.660;5.824;2024-01-30T00:56:49;20.69;;;17.97;;
56593;SDS011;42474;51.660;5.824;2024-01-30T01:00:49;21.21;;;18.05;;
56593;SDS011;42474;51.660;5.824;2024-01-30T01:04:49;19.69;;;17.47;;
56593;SDS011;42474;51.660;5.824;2024-01-30T01:08:49;23.07;;;18.01;;
56593;SDS011;42474;51.660;5.824;2024-01-30T01:12:49;24.77;;;17.55;;
56593;SDS011;42474;51.660;5.824;2024-01-30T01:16:49;20.58;;;17.01;;
56593;SDS011;42474;51.660;5.824;2024-01-30T01:20:49;21.34;;;17.35;;
56593;SDS011;42474;51.660;5.824;2024-01-30T01:24:49;18.67;;;16.3;;
56593;SDS011;42474;51.660;5.824;2024-01-30T01:28:49;19.48;;;16.61;;
56593;SDS011;42474;51.660;5.824;2024-01-30T01:32:49;21.52;;;18.13;;
56593;SDS011;42474;51.660;5.824;2024-01-30T01:36:49;19.87;;;16.83;;
56593;SDS011;42474;51.660;5.824;2024-01-30T01:40:49;20.37;;;17.93;;
56593;SDS011;42474;51.660;5.824;2024-01-30T01:44:49;20.45;;;18.13;;
56593;SDS011;42474;51.660;5.824;2024-01-30T01:48:50;19.83;;;17.22;;
56593;SDS011;42474;51.660;5.824;2024-01-30T01:52:50;18.95;;;16.93;;
56593;SDS011;42474;51.660;5.824;2024-01-30T01:56:50;20.27;;;17.47;;
56593;SDS011;42474;51.660;5.824;2024-01-30T02:00:50;21.91;;;17.44;;
56593;SDS011;42474;51.660;5.824;2024-01-30T02:04:49;19.23;;;16.46;;
56593;SDS011;42474;51.660;5.824;2024-01-30T02:08:49;19.64;;;17.15;;
56593;SDS011;42474;51.660;5.824;2024-01-30T02:12:50;22.4;;;17.94;;
56593;SDS011;42474;51.660;5.824;2024-01-30T02:16:49;20;;;17.42;;
56593;SDS011;42474;51.660;5.824;2024-01-30T02:20:53;18.82;;;16.83;;
56593;SDS011;42474;51.660;5.824;2024-01-30T02:24:50;19.41;;;17.2;;
56593;SDS011;42474;51.660;5.824;2024-01-30T02:28:49;21.62;;;17.24;;
56593;SDS011;42474;51.660;5.824;2024-01-30T02:32:49;20.43;;;16.82;;
56593;SDS011;42474;51.660;5.824;2024-01-30T02:36:49;19.38;;;15.89;;
56593;SDS011;42474;51.660;5.824;2024-01-30T02:40:49;20.73;;;16.27;;
56593;SDS011;42474;51.660;5.824;2024-01-30T02:48:50;18.78;;;15.43;;
56593;SDS011;42474;51.660;5.824;2024-01-30T02:52:49;18.09;;;15.97;;
56593;SDS011;42474;51.660;5.824;2024-01-30T02:56:49;19.91;;;16.92;;
56593;SDS011;42474;51.660;5.824;2024-01-30T03:00:50;18.13;;;15.55;;
56593;SDS011;42474;51.660;5.824;2024-01-30T03:04:49;17.51;;;15.22;;
56593;SDS011;42474;51.660;5.824;2024-01-30T03:08:49;20.53;;;15.96;;
56593;SDS011;42474;51.660;5.824;2024-01-30T03:12:49;17.96;;;14.86;;
56593;SDS011;42474;51.660;5.824;2024-01-30T03:16:49;20.32;;;15.83;;
56593;SDS011;42474;51.660;5.824;2024-01-30T03:20:49;17.3;;;14.75;;
56593;SDS011;42474;51.660;5.824;2024-01-30T03:24:50;19.01;;;15.93;;
56593;SDS011;42474;51.660;5.824;2024-01-30T03:28:49;17.71;;;14.48;;
56593;SDS011;42474;51.660;5.824;2024-01-30T03:32:49;20.6;;;16.15;;
56593;SDS011;42474;51.660;5.824;2024-01-30T03:36:49;18.3;;;15.51;;
56593;SDS011;42474;51.660;5.824;2024-01-30T03:40:50;19.32;;;14.99;;
56593;SDS011;42474;51.660;5.824;2024-01-30T03:44:49;21.51;;;15.76;;
56593;SDS011;42474;51.660;5.824;2024-01-30T03:48:52;19.04;;;14.93;;
56593;SDS011;42474;51.660;5.824;2024-01-30T03:52:49;19.37;;;14.65;;
56593;SDS011;42474;51.660;5.824;2024-01-30T03:56:49;20.36;;;15.81;;
56593;SDS011;42474;51.660;5.824;2024-01-30T04:00:49;20.34;;;15.26;;
56593;SDS011;42474;51.660;5.824;2024-01-30T04:04:49;19.44;;;14.55;;
56593;SDS011;42474;51.660;5.824;2024-01-30T04:08:49;18.91;;;15.19;;
56593;SDS011;42474;51.660;5.824;2024-01-30T04:12:50;19.27;;;15.62;;
56593;SDS011;42474;51.660;5.824;2024-01-30T04:16:49;18.84;;;14.75;;
56593;SDS011;42474;51.660;5.824;2024-01-30T04:20:50;18.15;;;14.94;;
56593;SDS011;42474;51.660;5.824;2024-01-30T04:24:50;15.56;;;12.88;;
56593;SDS011;42474;51.660;5.824;2024-01-30T04:28:50;15.57;;;13.96;;
56593;SDS011;42474;51.660;5.824;2024-01-30T04:32:49;15.05;;;13.28;;
56593;SDS011;42474;51.660;5.824;2024-01-30T04:36:50;16.91;;;14.31;;
56593;SDS011;42474;51.660;5.824;2024-01-30T04:40:49;17.8;;;14.25;;
56593;SDS011;42474;51.660;5.824;2024-01-30T04:44:50;20.46;;;13.44;;
56593;SDS011;42474;51.660;5.824;2024-01-30T04:48:50;16.05;;;14.07;;
56593;SDS011;42474;51.660;5.824;2024-01-30T04:52:49;15.69;;;13.72;;
56593;SDS011;42474;51.660;5.824;2024-01-30T04:56:49;17.66;;;14.36;;
56593;SDS011;42474;51.660;5.824;2024-01-30T05:00:50;15.96;;;13.72;;
56593;SDS011;42474;51.660;5.824;2024-01-30T05:04:49;16.06;;;13.56;;
56593;SDS011;42474;51.660;5.824;2024-01-30T05:08:49;14.86;;;12.86;;
56593;SDS011;42474;51.660;5.824;2024-01-30T05:12:50;19.12;;;14.01;;
56593;SDS011;42474;51.660;5.824;2024-01-30T05:16:49;15.92;;;12.25;;
56593;SDS011;42474;51.660;5.824;2024-01-30T05:20:50;16.95;;;13.6;;
56593;SDS011;42474;51.660;5.824;2024-01-30T05:24:49;16.14;;;12.78;;
56593;SDS011;42474;51.660;5.824;2024-01-30T05:28:50;16.56;;;12.46;;
56593;SDS011;42474;51.660;5.824;2024-01-30T05:32:49;15.38;;;12.98;;
56593;SDS011;42474;51.660;5.824;2024-01-30T05:36:50;13.24;;;11.8;;
56593;SDS011;42474;51.660;5.824;2024-01-30T05:40:49;15.5;;;11.92;;
56593;SDS011;42474;51.660;5.824;2024-01-30T05:44:50;17.01;;;12.15;;
56593;SDS011;42474;51.660;5.824;2024-01-30T05:48:51;14.21;;;11.75;;
56593;SDS011;42474;51.660;5.824;2024-01-30T05:52:49;14.01;;;11.6;;
56593;SDS011;42474;51.660;5.824;2024-01-30T05:56:50;17.09;;;12.77;;
56593;SDS011;42474;51.660;5.824;2024-01-30T06:00:50;13.96;;;11.43;;
56593;SDS011;42474;51.660;5.824;2024-01-30T06:04:49;14.94;;;12.18;;
56593;SDS011;42474;51.660;5.824;2024-01-30T06:08:50;13.85;;;11.97;;
56593;SDS011;42474;51.660;5.824;2024-01-30T06:12:50;13.42;;;11.93;;
56593;SDS011;42474;51.660;5.824;2024-01-30T06:16:50;16.26;;;12.44;;
56593;SDS011;42474;51.660;5.824;2024-01-30T06:20:52;13.95;;;11.81;;
56593;SDS011;42474;51.660;5.824;2024-01-30T06:24:50;15.79;;;11.86;;
56593;SDS011;42474;51.660;5.824;2024-01-30T06:28:50;14.15;;;12.57;;
56593;SDS011;42474;51.660;5.824;2024-01-30T06:32:50;15.15;;;12.46;;
56593;SDS011;42474;51.660;5.824;2024-01-30T06:36:50;16;;;12.77;;
56593;SDS011;42474;51.660;5.824;2024-01-30T06:40:50;14.41;;;12.45;;
56593;SDS011;42474;51.660;5.824;2024-01-30T06:44:50;16.11;;;12.89;;
56593;SDS011;42474;51.660;5.824;2024-01-30T06:48:50;17.21;;;13.07;;
56593;SDS011;42474;51.660;5.824;2024-01-30T06:52:50;17.42;;;12.67;;
56593;SDS011;42474;51.660;5.824;2024-01-30T06:56:52;15.48;;;12.04;;
56593;SDS011;42474;51.660;5.824;2024-01-30T07:00:50;15.22;;;12;;
56593;SDS011;42474;51.660;5.824;2024-01-30T07:04:50;16.07;;;13.14;;
56593;SDS011;42474;51.660;5.824;2024-01-30T07:08:50;15.15;;;12.31;;
56593;SDS011;42474;51.660;5.824;2024-01-30T07:12:50;15.06;;;12.86;;
56593;SDS011;42474;51.660;5.824;2024-01-30T07:16:50;14.79;;;11.78;;
56593;SDS011;42474;51.660;5.824;2024-01-30T07:20:52;16.56;;;12.33;;
56593;SDS011;42474;51.660;5.824;2024-01-30T07:24:50;14.23;;;12.03;;
56593;SDS011;42474;51.660;5.824;2024-01-30T07:28:50;16.17;;;12.15;;
56593;SDS011;42474;51.660;5.824;2024-01-30T07:32:50;16.57;;;12.77;;
56593;SDS011;42474;51.660;5.824;2024-01-30T07:36:50;13.65;;;10.77;;
56593;SDS011;42474;51.660;5.824;2024-01-30T07:40:50;12.93;;;11.49;;
56593;SDS011;42474;51.660;5.824;2024-01-30T07:44:50;13.19;;;11.27;;
56593;SDS011;42474;51.660;5.824;2024-01-30T07:48:50;13.74;;;11.07;;
56593;SDS011;42474;51.660;5.824;2024-01-30T07:52:50;13.77;;;10.61;;
56593;SDS011;42474;51.660;5.824;2024-01-30T07:56:50;13.04;;;9.79;;
56593;SDS011;42474;51.660;5.824;2024-01-30T08:04:50;13.6;;;10.96;;
56593;SDS011;42474;51.660;5.824;2024-01-30T08:08:50;12.95;;;10.65;;
56593;SDS011;42474;51.660;5.824;2024-01-30T08:12:50;13.51;;;10.71;;
56593;SDS011;42474;51.660;5.824;2024-01-30T08:16:50;12.28;;;9.95;;
56593;SDS011;42474;51.660;5.824;2024-01-30T08:20:50;12.89;;;10.53;;
56593;SDS011;42474;51.660;5.824;2024-01-30T08:24:50;12.22;;;10.3;;
56593;SDS011;42474;51.660;5.824;2024-01-30T08:28:50;14.07;;;10;;
56593;SDS011;42474;51.660;5.824;2024-01-30T08:32:50;12.44;;;9.61;;
56593;SDS011;42474;51.660;5.824;2024-01-30T08:36:50;12.8;;;10.07;;
56593;SDS011;42474;51.660;5.824;2024-01-30T08:40:50;14.77;;;10.1;;
56593;SDS011;42474;51.660;5.824;2024-01-30T08:44:50;12.4;;;9.52;;
56593;SDS011;42474;51.660;5.824;2024-01-30T08:48:50;10.18;;;8.13;;
56593;SDS011;42474;51.660;5.824;2024-01-30T08:52:50;13.42;;;9.24;;
56593;SDS011;42474;51.660;5.824;2024-01-30T08:56:50;11.06;;;9.81;;
56593;SDS011;42474;51.660;5.824;2024-01-30T09:00:50;10.48;;;9.33;;
56593;SDS011;42474;51.660;5.824;2024-01-30T09:04:50;10.42;;;8.82;;
56593;SDS011;42474;51.660;5.824;2024-01-30T09:08:50;13.67;;;9.38;;
56593;SDS011;42474;51.660;5.824;2024-01-30T09:12:50;13.58;;;9.98;;
56593;SDS011;42474;51.660;5.824;2024-01-30T09:16:50;16.56;;;9.81;;
56593;SDS011;42474;51.660;5.824;2024-01-30T09:20:50;11.94;;;9.28;;
56593;SDS011;42474;51.660;5.824;2024-01-30T09:24:50;11.29;;;8.91;;
56593;SDS011;42474;51.660;5.824;2024-01-30T09:28:50;10.76;;;9.19;;
56593;SDS011;42474;51.660;5.824;2024-01-30T09:32:50;11.04;;;9.03;;
56593;SDS011;42474;51.660;5.824;2024-01-30T09:36:50;13.06;;;9.9;;
56593;SDS011;42474;51.660;5.824;2024-01-30T09:40:54;14.2;;;10.37;;
56593;SDS011;42474;51.660;5.824;2024-01-30T09:44:51;12.85;;;9.56;;
56593;SDS011;42474;51.660;5.824;2024-01-30T09:48:50;12.96;;;10.2;;
56593;SDS011;42474;51.660;5.824;2024-01-30T09:52:51;14.18;;;10.66;;
56593;SDS011;42474;51.660;5.824;2024-01-30T09:56:50;13.98;;;10.46;;
56593;SDS011;42474;51.660;5.824;2024-01-30T10:00:50;13.72;;;10.48;;
56593;SDS011;42474;51.660;5.824;2024-01-30T10:04:51;11.43;;;9.38;;
56593;SDS011;42474;51.660;5.824;2024-01-30T10:08:50;15.47;;;10.59;;
56593;SDS011;42474;51.660;5.824;2024-01-30T10:12:50;12.75;;;9.22;;
56593;SDS011;42474;51.660;5.824;2024-01-30T10:16:50;14.85;;;11.4;;
56593;SDS011;42474;51.660;5.824;2024-01-30T10:20:51;14.2;;;10.03;;
56593;SDS011;42474;51.660;5.824;2024-01-30T10:24:50;12.57;;;9.63;;
56593;SDS011;42474;51.660;5.824;2024-01-30T10:28:50;14.31;;;10.18;;
56593;SDS011;42474;51.660;5.824;2024-01-30T10:32:50;13.87;;;10.96;;
56593;SDS011;42474;51.660;5.824;2024-01-30T10:36:50;14.45;;;11.2;;
56593;SDS011;42474;51.660;5.824;2024-01-30T10:40:53;16.84;;;11.5;;
56593;SDS011;42474;51.660;5.824;2024-01-30T10:44:56;15.47;;;10.82;;
56593;SDS011;42474;51.660;5.824;2024-01-30T10:48:54;18.21;;;11.52;;
56593;SDS011;42474;51.660;5.824;2024-01-30T10:52:50;14.95;;;11.35;;
56593;SDS011;42474;51.660;5.824;2024-01-30T10:56:51;16.05;;;11.21;;
56593;SDS011;42474;51.660;5.824;2024-01-30T11:00:50;15.82;;;10.95;;
56593;SDS011;42474;51.660;5.824;2024-01-30T11:04:54;14.91;;;10.14;;
56593;SDS011;42474;51.660;5.824;2024-01-30T11:09:00;11.42;;;9.42;;
56593;SDS011;42474;51.660;5.824;2024-01-30T11:12:50;16.41;;;11.11;;
56593;SDS011;42474;51.660;5.824;2024-01-30T11:16:50;15.71;;;10.12;;
56593;SDS011;42474;51.660;5.824;2024-01-30T11:20:50;13.48;;;9.13;;
56593;SDS011;42474;51.660;5.824;2024-01-30T11:24:50;15.44;;;9.87;;
56593;SDS011;42474;51.660;5.824;2024-01-30T11:28:52;12.7;;;9.13;;
56593;SDS011;42474;51.660;5.824;2024-01-30T11:33:00;17.94;;;11.36;;
56593;SDS011;42474;51.660;5.824;2024-01-30T11:36:52;12.9;;;10.06;;
56593;SDS011;42474;51.660;5.824;2024-01-30T11:40:51;19.34;;;11.64;;
56593;SDS011;42474;51.660;5.824;2024-01-30T11:44:50;16.87;;;9.74;;
56593;SDS011;42474;51.660;5.824;2024-01-30T11:48:50;13.97;;;10.11;;
56593;SDS011;42474;51.660;5.824;2024-01-30T11:52:50;17.4;;;11.34;;
56593;SDS011;42474;51.660;5.824;2024-01-30T11:56:51;19.41;;;10.75;;
56593;SDS011;42474;51.660;5.824;2024-01-30T12:00:53;17.14;;;11.71;;
56593;SDS011;42474;51.660;5.824;2024-01-30T12:04:50;16.27;;;11.73;;
56593;SDS011;42474;51.660;5.824;2024-01-30T12:08:57;14.38;;;9.28;;
56593;SDS011;42474;51.660;5.824;2024-01-30T12:12:50;15.35;;;10.99;;
56593;SDS011;42474;51.660;5.824;2024-01-30T12:16:50;14.83;;;10.08;;
56593;SDS011;42474;51.660;5.824;2024-01-30T12:21:00;15.99;;;9.44;;
56593;SDS011;42474;51.660;5.824;2024-01-30T12:24:50;14.02;;;8.74;;
56593;SDS011;42474;51.660;5.824;2024-01-30T12:28:50;10.6;;;7.03;;
56593;SDS011;42474;51.660;5.824;2024-01-30T12:32:50;10.74;;;6.91;;
56593;SDS011;42474;51.660;5.824;2024-01-30T12:36:50;12.02;;;6.92;;
56593;SDS011;42474;51.660;5.824;2024-01-30T12:40:52;11.47;;;6.65;;
56593;SDS011;42474;51.660;5.824;2024-01-30T12:44:51;11.49;;;6.76;;
56593;SDS011;42474;51.660;5.824;2024-01-30T12:48:50;10.75;;;6.35;;
56593;SDS011;42474;51.660;5.824;2024-01-30T12:52:50;6.97;;;5.46;;
56593;SDS011;42474;51.660;5.824;2024-01-30T12:56:52;6.89;;;4.98;;
56593;SDS011;42474;51.660;5.824;2024-01-30T13:00:50;6.46;;;4.31;;
56593;SDS011;42474;51.660;5.824;2024-01-30T13:04:50;5.38;;;3.54;;
56593;SDS011;42474;51.660;5.824;2024-01-30T13:08:51;7.34;;;3.69;;
56593;SDS011;42474;51.660;5.824;2024-01-30T13:12:50;5.97;;;3.53;;
56593;SDS011;42474;51.660;5.824;2024-01-30T13:16:50;7.37;;;3.26;;
56593;SDS011;42474;51.660;5.824;2024-01-30T13:20:51;4.31;;;2.75;;
56593;SDS011;42474;51.660;5.824;2024-01-30T13:24:50;5.14;;;2.61;;
56593;SDS011;42474;51.660;5.824;2024-01-30T13:28:50;5.1;;;2.44;;
56593;SDS011;42474;51.660;5.824;2024-01-30T13:32:50;3.5;;;1.95;;
56593;SDS011;42474;51.660;5.824;2024-01-30T13:36:50;5.63;;;2.14;;
56593;SDS011;42474;51.660;5.824;2024-01-30T13:40:50;4.58;;;2.02;;
56593;SDS011;42474;51.660;5.824;2024-01-30T13:44:50;2.38;;;1.88;;
56593;SDS011;42474;51.660;5.824;2024-01-30T13:48:50;3.6;;;2.03;;
56593;SDS011;42474;51.660;5.824;2024-01-30T13:52:50;3.43;;;1.77;;
56593;SDS011;42474;51.660;5.824;2024-01-30T13:56:50;3.4;;;1.84;;
56593;SDS011;42474;51.660;5.824;2024-01-30T14:00:50;3.73;;;1.83;;
56593;SDS011;42474;51.660;5.824;2024-01-30T14:04:50;4.25;;;2.27;;
56593;SDS011;42474;51.660;5.824;2024-01-30T14:08:51;3.92;;;1.71;;
56593;SDS011;42474;51.660;5.824;2024-01-30T14:12:50;6.7;;;2.26;;
56593;SDS011;42474;51.660;5.824;2024-01-30T14:16:50;4.63;;;2.28;;
56593;SDS011;42474;51.660;5.824;2024-01-30T14:20:51;5.13;;;2.42;;
56593;SDS011;42474;51.660;5.824;2024-01-30T14:24:50;4.16;;;2.23;;
56593;SDS011;42474;51.660;5.824;2024-01-30T14:28:50;3.64;;;2;;
56593;SDS011;42474;51.660;5.824;2024-01-30T14:32:50;5.29;;;2.59;;
56593;SDS011;42474;51.660;5.824;2024-01-30T14:36:50;4.84;;;2.3;;
56593;SDS011;42474;51.660;5.824;2024-01-30T14:40:50;4.93;;;2.78;;
56593;SDS011;42474;51.660;5.824;2024-01-30T14:44:50;3.2;;;2.08;;
56593;SDS011;42474;51.660;5.824;2024-01-30T14:48:50;3.83;;;2.38;;
56593;SDS011;42474;51.660;5.824;2024-01-30T14:52:50;4.9;;;2.44;;
56593;SDS011;42474;51.660;5.824;2024-01-30T14:56:50;4.36;;;2.03;;
56593;SDS011;42474;51.660;5.824;2024-01-30T15:00:50;6.46;;;2.76;;
56593;SDS011;42474;51.660;5.824;2024-01-30T15:04:50;5.64;;;3.42;;
56593;SDS011;42474;51.660;5.824;2024-01-30T15:08:50;6.73;;;3.88;;
56593;SDS011;42474;51.660;5.824;2024-01-30T15:12:51;8.91;;;4.13;;
56593;SDS011;42474;51.660;5.824;2024-01-30T15:16:50;7.26;;;4.96;;
56593;SDS011;42474;51.660;5.824;2024-01-30T15:20:51;8.79;;;5.99;;
56593;SDS011;42474;51.660;5.824;2024-01-30T15:24:50;7.39;;;5.63;;
56593;SDS011;42474;51.660;5.824;2024-01-30T15:28:50;11.13;;;6.67;;
56593;SDS011;42474;51.660;5.824;2024-01-30T15:32:50;9.26;;;5.9;;
56593;SDS011;42474;51.660;5.824;2024-01-30T15:36:50;8.33;;;5.87;;
56593;SDS011;42474;51.660;5.824;2024-01-30T15:40:50;10.69;;;6.86;;
56593;SDS011;42474;51.660;5.824;2024-01-30T15:44:50;14.37;;;8.83;;
56593;SDS011;42474;51.660;5.824;2024-01-30T15:48:50;11.33;;;8.06;;
56593;SDS011;42474;51.660;5.824;2024-01-30T15:52:50;11.48;;;7.91;;
56593;SDS011;42474;51.660;5.824;2024-01-30T15:56:50;12.28;;;6.79;;
56593;SDS011;42474;51.660;5.824;2024-01-30T16:00:50;14.01;;;6.32;;
56593;SDS011;42474;51.660;5.824;2024-01-30T16:04:50;9.05;;;6.34;;
56593;SDS011;42474;51.660;5.824;2024-01-30T16:08:50;8.49;;;6.29;;
56593;SDS011;42474;51.660;5.824;2024-01-30T16:12:50;7.89;;;5.61;;
56593;SDS011;42474;51.660;5.824;2024-01-30T16:16:50;10.35;;;5.48;;
56593;SDS011;42474;51.660;5.824;2024-01-30T16:20:30;15.28;;;5.53;;
56593;SDS011;42474;51.660;5.824;2024-01-30T16:24:30;23.83;;;9.64;;
56593;SDS011;42474;51.660;5.824;2024-01-30T16:28:30;33.25;;;13.47;;
56593;SDS011;42474;51.660;5.824;2024-01-30T16:32:30;22.41;;;8.22;;
56593;SDS011;42474;51.660;5.824;2024-01-30T16:36:30;20.51;;;7.65;;
56593;SDS011;42474;51.660;5.824;2024-01-30T16:40:30;18.93;;;6.91;;
56593;SDS011;42474;51.660;5.824;2024-01-30T16:44:30;16.61;;;6.67;;
56593;SDS011;42474;51.660;5.824;2024-01-30T16:48:30;13.94;;;6.23;;
56593;SDS011;42474;51.660;5.824;2024-01-30T16:52:30;14.14;;;6.48;;
56593;SDS011;42474;51.660;5.824;2024-01-30T16:56:30;15.2;;;5.65;;
56593;SDS011;42474;51.660;5.824;2024-01-30T17:00:30;15.56;;;6.32;;
56593;SDS011;42474;51.660;5.824;2024-01-30T17:04:30;12.9;;;5.24;;
56593;SDS011;42474;51.660;5.824;2024-01-30T17:08:30;14.62;;;5.28;;
56593;SDS011;42474;51.660;5.824;2024-01-30T17:12:30;13.03;;;5.17;;
56593;SDS011;42474;51.660;5.824;2024-01-30T17:16:30;11.11;;;4.58;;
56593;SDS011;42474;51.660;5.824;2024-01-30T17:20:30;12.07;;;4.55;;
56593;SDS011;42474;51.660;5.824;2024-01-30T17:24:30;10.1;;;4.58;;
56593;SDS011;42474;51.660;5.824;2024-01-30T17:28:30;12.52;;;4.36;;
56593;SDS011;42474;51.660;5.824;2024-01-30T17:32:30;16.22;;;4.98;;
56593;SDS011;42474;51.660;5.824;2024-01-30T17:36:30;11.65;;;4.37;;
56593;SDS011;42474;51.660;5.824;2024-01-30T17:40:30;9.74;;;4.23;;
56593;SDS011;42474;51.660;5.824;2024-01-30T17:44:30;9.76;;;3.85;;
56593;SDS011;42474;51.660;5.824;2024-01-30T17:48:30;7.97;;;3.9;;
56593;SDS011;42474;51.660;5.824;2024-01-30T17:52:30;9.14;;;3.74;;
56593;SDS011;42474;51.660;5.824;2024-01-30T17:56:30;8.02;;;3.54;;
56593;SDS011;42474;51.660;5.824;2024-01-30T18:00:30;8.73;;;3.81;;
56593;SDS011;42474;51.660;5.824;2024-01-30T18:04:30;8.24;;;3.66;;
56593;SDS011;42474;51.660;5.824;2024-01-30T18:08:31;9.33;;;3.35;;
56593;SDS011;42474;51.660;5.824;2024-01-30T18:12:30;7.34;;;3.52;;
56593;SDS011;42474;51.660;5.824;2024-01-30T18:16:30;7.25;;;3.22;;
56593;SDS011;42474;51.660;5.824;2024-01-30T18:20:30;7.08;;;3.21;;
56593;SDS011;42474;51.660;5.824;2024-01-30T18:24:30;6.74;;;3.18;;
56593;SDS011;42474;51.660;5.824;2024-01-30T18:28:30;9.81;;;3.38;;
56593;SDS011;42474;51.660;5.824;2024-01-30T18:32:30;8.4;;;3.28;;
56593;SDS011;42474;51.660;5.824;2024-01-30T18:36:30;7.11;;;2.92;;
56593;SDS011;42474;51.660;5.824;2024-01-30T18:40:30;10.69;;;3.02;;
56593;SDS011;42474;51.660;5.824;2024-01-30T18:44:30;8.05;;;2.85;;
56593;SDS011;42474;51.660;5.824;2024-01-30T18:48:30;6.48;;;2.72;;
56593;SDS011;42474;51.660;5.824;2024-01-30T18:52:39;6.02;;;3.18;;
56593;SDS011;42474;51.660;5.824;2024-01-30T18:56:39;7.89;;;2.83;;
56593;SDS011;42474;51.660;5.824;2024-01-30T19:00:39;6.13;;;2.81;;
56593;SDS011;42474;51.660;5.824;2024-01-30T19:04:40;6.28;;;2.57;;
56593;SDS011;42474;51.660;5.824;2024-01-30T19:08:39;5.92;;;2.46;;
56593;SDS011;42474;51.660;5.824;2024-01-30T19:12:39;4.08;;;2.41;;
56593;SDS011;42474;51.660;5.824;2024-01-30T19:16:39;5.53;;;2.42;;
56593;SDS011;42474;51.660;5.824;2024-01-30T19:20:39;4.77;;;2.26;;
56593;SDS011;42474;51.660;5.824;2024-01-30T19:24:39;6.43;;;3.19;;
56593;SDS011;42474;51.660;5.824;2024-01-30T19:28:39;7.44;;;2.21;;
56593;SDS011;42474;51.660;5.824;2024-01-30T19:32:39;4.06;;;1.94;;
56593;SDS011;42474;51.660;5.824;2024-01-30T19:36:39;9.59;;;2.1;;
56593;SDS011;42474;51.660;5.824;2024-01-30T19:40:39;3.78;;;2.04;;
56593;SDS011;42474;51.660;5.824;2024-01-30T19:44:39;5.91;;;2.25;;
56593;SDS011;42474;51.660;5.824;2024-01-30T19:48:39;2.81;;;1.65;;
56593;SDS011;42474;51.660;5.824;2024-01-30T19:52:41;4.55;;;1.91;;
56593;SDS011;42474;51.660;5.824;2024-01-30T19:56:39;7.41;;;1.85;;
56593;SDS011;42474;51.660;5.824;2024-01-30T20:00:39;4.13;;;2.02;;
56593;SDS011;42474;51.660;5.824;2024-01-30T20:04:39;5.2;;;1.78;;
56593;SDS011;42474;51.660;5.824;2024-01-30T20:08:39;3.27;;;1.67;;
56593;SDS011;42474;51.660;5.824;2024-01-30T20:12:39;5.14;;;1.96;;
56593;SDS011;42474;51.660;5.824;2024-01-30T20:16:40;3.89;;;1.59;;
56593;SDS011;42474;51.660;5.824;2024-01-30T20:20:39;2.96;;;1.64;;
56593;SDS011;42474;51.660;5.824;2024-01-30T20:24:40;4.13;;;1.55;;
56593;SDS011;42474;51.660;5.824;2024-01-30T20:28:39;4.32;;;1.53;;
56593;SDS011;42474;51.660;5.824;2024-01-30T20:32:39;2.93;;;1.58;;
56593;SDS011;42474;51.660;5.824;2024-01-30T20:36:41;2.87;;;1.53;;
56593;SDS011;42474;51.660;5.824;2024-01-30T20:40:39;3.59;;;1.45;;
56593;SDS011;42474;51.660;5.824;2024-01-30T20:44:39;4.87;;;1.74;;
56593;SDS011;42474;51.660;5.824;2024-01-30T20:48:39;5.67;;;1.53;;
56593;SDS011;42474;51.660;5.824;2024-01-30T20:52:39;4.7;;;1.78;;
56593;SDS011;42474;51.660;5.824;2024-01-30T21:00:30;4.31;;;1.89;;
56593;SDS011;42474;51.660;5.824;2024-01-30T21:04:30;3.07;;;1.7;;
56593;SDS011;42474;51.660;5.824;2024-01-30T21:08:30;5.24;;;1.57;;
56593;SDS011;42474;51.660;5.824;2024-01-30T21:12:30;4.84;;;1.38;;
56593;SDS011;42474;51.660;5.824;2024-01-30T21:16:30;4.93;;;1.81;;
56593;SDS011;42474;51.660;5.824;2024-01-30T21:20:30;3.08;;;1.27;;
56593;SDS011;42474;51.660;5.824;2024-01-30T21:24:30;2.89;;;1.21;;
56593;SDS011;42474;51.660;5.824;2024-01-30T21:28:30;7.09;;;1.26;;
56593;SDS011;42474;51.660;5.824;2024-01-30T21:32:30;2.37;;;1.25;;
56593;SDS011;42474;51.660;5.824;2024-01-30T21:36:30;2.83;;;1.21;;
56593;SDS011;42474;51.660;5.824;2024-01-30T21:40:30;4.21;;;1.26;;
56593;SDS011;42474;51.660;5.824;2024-01-30T21:44:30;2.24;;;1.1;;
56593;SDS011;42474;51.660;5.824;2024-01-30T21:48:31;2.91;;;1.06;;
56593;SDS011;42474;51.660;5.824;2024-01-30T21:52:31;3.59;;;1.23;;
56593;SDS011;42474;51.660;5.824;2024-01-30T21:56:31;1.97;;;1.05;;
56593;SDS011;42474;51.660;5.824;2024-01-30T22:00:30;2.81;;;1.34;;
56593;SDS011;42474;51.660;5.824;2024-01-30T22:04:31;3.33;;;1.21;;
56593;SDS011;42474;51.660;5.824;2024-01-30T22:08:30;4.63;;;1.2;;
56593;SDS011;42474;51.660;5.824;2024-01-30T22:12:30;3.15;;;1.18;;
56593;SDS011;42474;51.660;5.824;2024-01-30T22:16:30;2.05;;;1.04;;
56593;SDS011;42474;51.660;5.824;2024-01-30T22:20:30;2.67;;;1.04;;
56593;SDS011;42474;51.660;5.824;2024-01-30T22:24:30;1.82;;;1.17;;
56593;SDS011;42474;51.660;5.824;2024-01-30T22:28:30;3.12;;;1.13;;
56593;SDS011;42474;51.660;5.824;2024-01-30T22:32:30;2.92;;;1.27;;
56593;SDS011;42474;51.660;5.824;2024-01-30T22:36:31;2.98;;;1.14;;
56593;SDS011;42474;51.660;5.824;2024-01-30T22:40:30;2.72;;;0.96;;
56593;SDS011;42474;51.660;5.824;2024-01-30T22:44:30;2.72;;;1.11;;
56593;SDS011;42474;51.660;5.824;2024-01-30T22:48:30;2.9;;;1.16;;
56593;SDS011;42474;51.660;5.824;2024-01-30T22:52:30;1.61;;;0.98;;
56593;SDS011;42474;51.660;5.824;2024-01-30T22:56:30;4.12;;;1.21;;
56593;SDS011;42474;51.660;5.824;2024-01-30T23:04:30;2.15;;;1.13;;
56593;SDS011;42474;51.660;5.824;2024-01-30T23:08:30;3.36;;;1.02;;
56593;SDS011;42474;51.660;5.824;2024-01-30T23:12:30;1.79;;;0.78;;
56593;SDS011;42474;51.660;5.824;2024-01-30T23:16:30;1.86;;;0.91;;
56593;SDS011;42474;51.660;5.824;2024-01-30T23:20:30;2.08;;;0.95;;
56593;SDS011;42474;51.660;5.824;2024-01-30T23:24:30;1.85;;;1.01;;
56593;SDS011;42474;51.660;5.824;2024-01-30T23:28:30;3.03;;;0.98;;
56593;SDS011;42474;51.660;5.824;2024-01-30T23:32:30;2.11;;;1;;
56593;SDS011;42474;51.660;5.824;2024-01-30T23:36:31;2.84;;;1;;
56593;SDS011;42474;51.660;5.824;2024-01-30T23:40:31;1.55;;;0.86;;
56593;SDS011;42474;51.660;5.824;2024-01-30T23:44:31;1.22;;;0.76;;
56593;SDS011;42474;51.660;5.824;2024-01-30T23:48:30;1.32;;;0.76;;
56593;SDS011;42474;51.660;5.824;2024-01-30T23:52:31;2.19;;;0.96;;
56593;SDS011;42474;51.660;5.824;2024-01-30T23:56:31;1.64;;;0.83;;
